sensor_id;sensor_type;location;lat;lon;timestamp;pressure;altitude;pressure_sealevel;temperature;humidity
44044;BME280;29709;52.396;16.796;2023-04-06T00:03:03;102341.97;;;1.57;59.71
44044;BME280;29709;52.396;16.796;2023-04-06T00:06:16;102355.79;;;1.51;59.41
44044;BME280;29709;52.396;16.796;2023-04-06T00:09:30;102353.16;;;1.50;59.70
44044;BME280;29709;52.396;16.796;2023-04-06T00:12:43;102359.37;;;1.52;60.13
44044;BME280;29709;52.396;16.796;2023-04-06T00:15:56;102351.41;;;1.49;59.87
44044;BME280;29709;52.396;16.796;2023-04-06T00:19:09;102357.70;;;1.49;59.30
44044;BME280;29709;52.396;16.796;2023-04-06T00:22:23;102348.23;;;1.39;59.70
44044;BME280;29709;52.396;16.796;2023-04-06T00:25:36;102348.44;;;1.34;59.89
44044;BME280;29709;52.396;16.796;2023-04-06T00:28:49;102347.63;;;1.32;60.41
44044;BME280;29709;52.396;16.796;2023-04-06T00:32:05;102338.48;;;1.35;58.75
44044;BME280;29709;52.396;16.796;2023-04-06T00:35:18;102337.22;;;1.23;59.77
44044;BME280;29709;52.396;16.796;2023-04-06T00:38:31;102333.18;;;1.13;60.15
44044;BME280;29709;52.396;16.796;2023-04-06T00:41:47;102337.79;;;1.11;59.33
44044;BME280;29709;52.396;16.796;2023-04-06T00:45:03;102339.77;;;1.07;61.08
44044;BME280;29709;52.396;16.796;2023-04-06T00:48:16;102333.33;;;1.10;60.34
44044;BME280;29709;52.396;16.796;2023-04-06T00:51:29;102333.33;;;1.10;60.30
44044;BME280;29709;52.396;16.796;2023-04-06T00:54:43;102334.36;;;1.07;59.59
44044;BME280;29709;52.396;16.796;2023-04-06T00:57:58;102340.80;;;1.05;60.17
44044;BME280;29709;52.396;16.796;2023-04-06T01:01:13;102336.03;;;1.10;57.64
44044;BME280;29709;52.396;16.796;2023-04-06T01:04:27;102333.09;;;0.96;59.49
44044;BME280;29709;52.396;16.796;2023-04-06T01:07:40;102332.81;;;0.81;59.99
44044;BME280;29709;52.396;16.796;2023-04-06T01:10:53;102335.04;;;0.72;61.76
44044;BME280;29709;52.396;16.796;2023-04-06T01:14:07;102339.46;;;0.74;62.22
44044;BME280;29709;52.396;16.796;2023-04-06T01:17:20;102343.78;;;0.78;61.75
44044;BME280;29709;52.396;16.796;2023-04-06T01:20:33;102338.04;;;0.86;60.61
44044;BME280;29709;52.396;16.796;2023-04-06T01:23:47;102330.80;;;0.86;61.19
44044;BME280;29709;52.396;16.796;2023-04-06T01:27:00;102335.25;;;0.88;60.48
44044;BME280;29709;52.396;16.796;2023-04-06T01:30:14;102342.98;;;0.76;61.77
44044;BME280;29709;52.396;16.796;2023-04-06T01:33:30;102343.93;;;0.75;60.63
44044;BME280;29709;52.396;16.796;2023-04-06T01:36:43;102335.98;;;0.71;62.00
44044;BME280;29709;52.396;16.796;2023-04-06T01:39:56;102340.53;;;0.70;61.15
44044;BME280;29709;52.396;16.796;2023-04-06T01:43:09;102339.50;;;0.73;61.79
44044;BME280;29709;52.396;16.796;2023-04-06T01:46:23;102333.98;;;0.76;61.72
44044;BME280;29709;52.396;16.796;2023-04-06T01:49:36;102336.62;;;0.77;61.33
44044;BME280;29709;52.396;16.796;2023-04-06T01:52:49;102330.17;;;0.80;61.27
44044;BME280;29709;52.396;16.796;2023-04-06T01:56:03;102337.48;;;0.78;59.12
44044;BME280;29709;52.396;16.796;2023-04-06T01:59:16;102335.58;;;0.60;62.21
44044;BME280;29709;52.396;16.796;2023-04-06T02:02:29;102335.80;;;0.55;62.31
44044;BME280;29709;52.396;16.796;2023-04-06T02:05:43;102336.05;;;0.49;62.22
44044;BME280;29709;52.396;16.796;2023-04-06T02:08:56;102339.52;;;0.52;60.75
44044;BME280;29709;52.396;16.796;2023-04-06T02:12:09;102338.20;;;0.41;62.80
44044;BME280;29709;52.396;16.796;2023-04-06T02:15:22;102341.78;;;0.41;62.86
44044;BME280;29709;52.396;16.796;2023-04-06T02:18:36;102335.39;;;0.44;62.78
44044;BME280;29709;52.396;16.796;2023-04-06T02:21:49;102331.87;;;0.42;62.39
44044;BME280;29709;52.396;16.796;2023-04-06T02:25:02;102336.20;;;0.46;62.23
44044;BME280;29709;52.396;16.796;2023-04-06T02:28:16;102330.93;;;0.43;62.49
44044;BME280;29709;52.396;16.796;2023-04-06T02:31:29;102330.23;;;0.38;61.52
44044;BME280;29709;52.396;16.796;2023-04-06T02:34:42;102334.09;;;0.32;62.39
44044;BME280;29709;52.396;16.796;2023-04-06T02:37:55;102330.55;;;0.30;62.85
44044;BME280;29709;52.396;16.796;2023-04-06T02:41:08;102327.97;;;0.27;62.07
44044;BME280;29709;52.396;16.796;2023-04-06T02:44:22;102337.56;;;0.14;62.71
44044;BME280;29709;52.396;16.796;2023-04-06T02:47:35;102336.86;;;0.09;62.19
44044;BME280;29709;52.396;16.796;2023-04-06T02:50:48;102339.38;;;0.13;63.68
44044;BME280;29709;52.396;16.796;2023-04-06T02:54:02;102344.72;;;0.15;61.93
44044;BME280;29709;52.396;16.796;2023-04-06T02:57:15;102347.66;;;0.09;62.09
44044;BME280;29709;52.396;16.796;2023-04-06T03:00:29;102350.71;;;0.01;62.73
44044;BME280;29709;52.396;16.796;2023-04-06T03:03:43;102348.55;;;0.09;64.40
44044;BME280;29709;52.396;16.796;2023-04-06T03:06:56;102357.09;;;0.20;64.00
44044;BME280;29709;52.396;16.796;2023-04-06T03:10:09;102353.33;;;0.24;62.80
44044;BME280;29709;52.396;16.796;2023-04-06T03:13:23;102351.75;;;0.19;61.80
44044;BME280;29709;52.396;16.796;2023-04-06T03:16:36;102354.02;;;0.08;63.39
44044;BME280;29709;52.396;16.796;2023-04-06T03:19:49;102365.03;;;0.03;62.02
44044;BME280;29709;52.396;16.796;2023-04-06T03:23:03;102359.55;;;0.05;61.82
44044;BME280;29709;52.396;16.796;2023-04-06T03:26:16;102358.55;;;0.07;64.07
44044;BME280;29709;52.396;16.796;2023-04-06T03:29:29;102364.73;;;0.11;61.45
44044;BME280;29709;52.396;16.796;2023-04-06T03:32:44;102361.12;;;0.10;62.85
44044;BME280;29709;52.396;16.796;2023-04-06T03:35:57;102370.95;;;0.13;64.71
44044;BME280;29709;52.396;16.796;2023-04-06T03:39:12;102361.01;;;0.13;62.00
44044;BME280;29709;52.396;16.796;2023-04-06T03:42:25;102372.57;;;0.17;64.19
44044;BME280;29709;52.396;16.796;2023-04-06T03:45:39;102375.91;;;0.23;63.49
44044;BME280;29709;52.396;16.796;2023-04-06T03:48:52;102378.34;;;0.29;63.07
44044;BME280;29709;52.396;16.796;2023-04-06T03:52:05;102372.70;;;0.36;62.55
44044;BME280;29709;52.396;16.796;2023-04-06T03:55:19;102377.96;;;0.39;62.39
44044;BME280;29709;52.396;16.796;2023-04-06T03:58:32;102376.02;;;0.42;63.16
44044;BME280;29709;52.396;16.796;2023-04-06T04:01:45;102375.02;;;0.45;62.83
44044;BME280;29709;52.396;16.796;2023-04-06T04:04:58;102377.51;;;0.49;63.49
44044;BME280;29709;52.396;16.796;2023-04-06T04:08:11;102379.20;;;0.52;63.17
44044;BME280;29709;52.396;16.796;2023-04-06T04:11:24;102386.51;;;0.50;62.78
44044;BME280;29709;52.396;16.796;2023-04-06T04:14:37;102376.63;;;0.49;62.89
44044;BME280;29709;52.396;16.796;2023-04-06T04:17:51;102381.09;;;0.50;61.17
44044;BME280;29709;52.396;16.796;2023-04-06T04:21:04;102377.89;;;0.40;61.99
44044;BME280;29709;52.396;16.796;2023-04-06T04:24:17;102373.81;;;0.30;62.42
44044;BME280;29709;52.396;16.796;2023-04-06T04:27:30;102374.26;;;0.19;62.41
44044;BME280;29709;52.396;16.796;2023-04-06T04:30:43;102375.58;;;0.09;62.58
44044;BME280;29709;52.396;16.796;2023-04-06T04:33:58;102381.87;;;0.10;63.20
44044;BME280;29709;52.396;16.796;2023-04-06T04:37:11;102380.01;;;0.12;63.21
44044;BME280;29709;52.396;16.796;2023-04-06T04:40:24;102381.57;;;0.17;62.12
44044;BME280;29709;52.396;16.796;2023-04-06T04:43:38;102387.91;;;0.16;61.78
44044;BME280;29709;52.396;16.796;2023-04-06T04:46:51;102380.98;;;0.09;62.66
44044;BME280;29709;52.396;16.796;2023-04-06T04:50:05;102387.34;;;0.08;64.03
44044;BME280;29709;52.396;16.796;2023-04-06T04:53:18;102397.34;;;0.06;63.84
44044;BME280;29709;52.396;16.796;2023-04-06T04:56:32;102390.04;;;0.08;63.57
44044;BME280;29709;52.396;16.796;2023-04-06T04:59:45;102390.68;;;0.15;63.75
44044;BME280;29709;52.396;16.796;2023-04-06T05:02:58;102395.01;;;0.19;64.58
44044;BME280;29709;52.396;16.796;2023-04-06T05:06:12;102386.66;;;0.25;64.35
44044;BME280;29709;52.396;16.796;2023-04-06T05:09:25;102390.66;;;0.37;64.12
44044;BME280;29709;52.396;16.796;2023-04-06T05:12:38;102393.00;;;0.46;63.04
44044;BME280;29709;52.396;16.796;2023-04-06T05:15:51;102394.23;;;0.59;62.22
44044;BME280;29709;52.396;16.796;2023-04-06T05:19:04;102391.84;;;0.73;62.80
44044;BME280;29709;52.396;16.796;2023-04-06T05:22:18;102391.14;;;0.89;63.32
44044;BME280;29709;52.396;16.796;2023-04-06T05:25:32;102393.30;;;1.01;62.99
44044;BME280;29709;52.396;16.796;2023-04-06T05:28:45;102392.67;;;1.14;62.84
44044;BME280;29709;52.396;16.796;2023-04-06T05:31:58;102398.38;;;1.29;61.14
44044;BME280;29709;52.396;16.796;2023-04-06T05:35:14;102394.83;;;1.47;61.89
44044;BME280;29709;52.396;16.796;2023-04-06T05:38:27;102399.36;;;1.65;61.08
44044;BME280;29709;52.396;16.796;2023-04-06T05:41:42;102401.66;;;1.93;60.96
44044;BME280;29709;52.396;16.796;2023-04-06T05:44:55;102405.05;;;2.35;60.29
44044;BME280;29709;52.396;16.796;2023-04-06T05:48:08;102409.44;;;2.73;59.50
44044;BME280;29709;52.396;16.796;2023-04-06T05:51:22;102406.23;;;3.00;59.07
44044;BME280;29709;52.396;16.796;2023-04-06T05:54:36;102398.77;;;3.21;58.17
44044;BME280;29709;52.396;16.796;2023-04-06T05:57:50;102398.73;;;3.55;57.92
44044;BME280;29709;52.396;16.796;2023-04-06T06:01:03;102398.93;;;3.84;57.34
44044;BME280;29709;52.396;16.796;2023-04-06T06:04:17;102392.73;;;4.13;56.74
44044;BME280;29709;52.396;16.796;2023-04-06T06:07:31;102389.73;;;4.49;56.45
44044;BME280;29709;52.396;16.796;2023-04-06T06:10:44;102388.27;;;4.74;55.70
44044;BME280;29709;52.396;16.796;2023-04-06T06:13:57;102385.12;;;4.96;55.19
44044;BME280;29709;52.396;16.796;2023-04-06T06:17:10;102386.42;;;5.18;54.51
44044;BME280;29709;52.396;16.796;2023-04-06T06:20:24;102384.04;;;5.42;54.19
44044;BME280;29709;52.396;16.796;2023-04-06T06:23:38;102385.79;;;5.43;52.71
44044;BME280;29709;52.396;16.796;2023-04-06T06:26:51;102384.91;;;5.57;53.15
44044;BME280;29709;52.396;16.796;2023-04-06T06:30:08;102381.02;;;5.75;51.93
44044;BME280;29709;52.396;16.796;2023-04-06T06:33:21;102382.77;;;5.91;51.86
44044;BME280;29709;52.396;16.796;2023-04-06T06:36:34;102377.97;;;6.08;52.17
44044;BME280;29709;52.396;16.796;2023-04-06T06:39:48;102390.86;;;6.33;51.14
44044;BME280;29709;52.396;16.796;2023-04-06T06:43:01;102396.58;;;6.43;49.17
44044;BME280;29709;52.396;16.796;2023-04-06T06:46:15;102393.39;;;6.63;50.13
44044;BME280;29709;52.396;16.796;2023-04-06T06:49:28;102394.62;;;6.72;49.46
44044;BME280;29709;52.396;16.796;2023-04-06T06:52:41;102390.00;;;6.60;49.12
44044;BME280;29709;52.396;16.796;2023-04-06T06:55:55;102392.77;;;6.73;49.37
44044;BME280;29709;52.396;16.796;2023-04-06T06:59:08;102393.48;;;6.89;48.76
44044;BME280;29709;52.396;16.796;2023-04-06T07:02:22;102399.58;;;6.80;46.72
44044;BME280;29709;52.396;16.796;2023-04-06T07:05:35;102402.20;;;6.81;47.80
44044;BME280;29709;52.396;16.796;2023-04-06T07:08:48;102400.23;;;6.83;48.14
44044;BME280;29709;52.396;16.796;2023-04-06T07:12:01;102398.26;;;6.85;47.89
44044;BME280;29709;52.396;16.796;2023-04-06T07:15:15;102397.98;;;7.03;47.74
44044;BME280;29709;52.396;16.796;2023-04-06T07:18:28;102392.93;;;6.97;47.11
44044;BME280;29709;52.396;16.796;2023-04-06T07:21:41;102395.15;;;7.17;44.24
44044;BME280;29709;52.396;16.796;2023-04-06T07:24:54;102394.96;;;7.20;45.23
44044;BME280;29709;52.396;16.796;2023-04-06T07:28:07;102388.51;;;7.21;45.13
44044;BME280;29709;52.396;16.796;2023-04-06T07:31:21;102391.77;;;7.39;45.30
44044;BME280;29709;52.396;16.796;2023-04-06T07:34:34;102385.89;;;7.32;44.70
44044;BME280;29709;52.396;16.796;2023-04-06T07:38:47;102385.76;;;7.46;45.76
44044;BME280;29709;52.396;16.796;2023-04-06T07:42:02;102384.11;;;7.69;44.33
44044;BME280;29709;52.396;16.796;2023-04-06T07:45:15;102386.62;;;7.85;45.16
44044;BME280;29709;52.396;16.796;2023-04-06T07:48:28;102386.34;;;8.01;45.00
44044;BME280;29709;52.396;16.796;2023-04-06T07:51:42;102382.33;;;8.30;44.03
44044;BME280;29709;52.396;16.796;2023-04-06T07:54:55;102380.35;;;8.45;43.92
44044;BME280;29709;52.396;16.796;2023-04-06T07:58:08;102382.21;;;8.45;42.97
44044;BME280;29709;52.396;16.796;2023-04-06T08:01:22;102383.77;;;8.60;44.56
44044;BME280;29709;52.396;16.796;2023-04-06T08:04:36;102392.05;;;8.71;43.27
44044;BME280;29709;52.396;16.796;2023-04-06T08:07:49;102389.85;;;8.76;42.68
44044;BME280;29709;52.396;16.796;2023-04-06T08:11:02;102378.64;;;8.79;42.56
44044;BME280;29709;52.396;16.796;2023-04-06T08:14:16;102382.02;;;8.59;40.65
44044;BME280;29709;52.396;16.796;2023-04-06T08:17:29;102374.73;;;8.71;42.13
44044;BME280;29709;52.396;16.796;2023-04-06T08:20:43;102376.40;;;8.84;42.13
44044;BME280;29709;52.396;16.796;2023-04-06T08:23:57;102370.91;;;8.84;41.97
44044;BME280;29709;52.396;16.796;2023-04-06T08:27:10;102376.44;;;8.95;42.56
44044;BME280;29709;52.396;16.796;2023-04-06T08:30:23;102368.45;;;8.92;41.72
44044;BME280;29709;52.396;16.796;2023-04-06T08:33:36;102371.73;;;8.98;40.93
44044;BME280;29709;52.396;16.796;2023-04-06T08:36:52;102373.70;;;8.95;41.21
44044;BME280;29709;52.396;16.796;2023-04-06T08:40:06;102371.11;;;9.05;41.51
44044;BME280;29709;52.396;16.796;2023-04-06T08:43:21;102375.41;;;9.20;40.52
44044;BME280;29709;52.396;16.796;2023-04-06T08:46:35;102367.92;;;9.22;39.81
44044;BME280;29709;52.396;16.796;2023-04-06T08:49:50;102370.29;;;9.27;39.96
44044;BME280;29709;52.396;16.796;2023-04-06T08:53:03;102373.69;;;9.31;38.58
44044;BME280;29709;52.396;16.796;2023-04-06T08:56:18;102363.66;;;9.07;39.19
44044;BME280;29709;52.396;16.796;2023-04-06T08:59:33;102375.80;;;8.92;38.76
44044;BME280;29709;52.396;16.796;2023-04-06T09:02:49;102367.49;;;9.05;39.59
44044;BME280;29709;52.396;16.796;2023-04-06T09:06:03;102361.18;;;9.26;40.30
44044;BME280;29709;52.396;16.796;2023-04-06T09:09:17;102355.76;;;9.49;40.02
44044;BME280;29709;52.396;16.796;2023-04-06T09:12:31;102353.50;;;9.54;39.01
44044;BME280;29709;52.396;16.796;2023-04-06T09:15:45;102360.99;;;9.52;38.29
44044;BME280;29709;52.396;16.796;2023-04-06T09:19:03;102353.75;;;9.40;36.87
44044;BME280;29709;52.396;16.796;2023-04-06T09:22:18;102357.77;;;9.01;37.78
44044;BME280;29709;52.396;16.796;2023-04-06T09:25:31;102354.46;;;9.19;38.78
44044;BME280;29709;52.396;16.796;2023-04-06T09:28:54;102350.88;;;9.41;36.40
44044;BME280;29709;52.396;16.796;2023-04-06T09:32:08;102349.89;;;8.96;36.93
44044;BME280;29709;52.396;16.796;2023-04-06T09:35:29;102353.91;;;9.03;37.55
44044;BME280;29709;52.396;16.796;2023-04-06T09:38:55;102353.35;;;9.33;38.54
44044;BME280;29709;52.396;16.796;2023-04-06T09:42:08;102353.38;;;9.67;37.46
44044;BME280;29709;52.396;16.796;2023-04-06T09:45:22;102343.89;;;9.93;37.89
44044;BME280;29709;52.396;16.796;2023-04-06T09:48:36;102347.11;;;9.98;36.82
44044;BME280;29709;52.396;16.796;2023-04-06T09:51:57;102351.60;;;9.99;36.68
44044;BME280;29709;52.396;16.796;2023-04-06T09:55:12;102342.87;;;10.05;36.29
44044;BME280;29709;52.396;16.796;2023-04-06T09:58:33;102333.01;;;10.03;35.92
44044;BME280;29709;52.396;16.796;2023-04-06T10:01:50;102336.12;;;9.98;36.01
44044;BME280;29709;52.396;16.796;2023-04-06T10:05:12;102340.89;;;9.85;35.40
44044;BME280;29709;52.396;16.796;2023-04-06T10:08:27;102340.77;;;9.64;36.00
44044;BME280;29709;52.396;16.796;2023-04-06T10:11:41;102332.06;;;9.59;35.72
44044;BME280;29709;52.396;16.796;2023-04-06T10:14:55;102334.54;;;9.62;35.50
44044;BME280;29709;52.396;16.796;2023-04-06T10:18:09;102324.17;;;9.66;36.18
44044;BME280;29709;52.396;16.796;2023-04-06T10:21:25;102321.54;;;9.87;36.11
44044;BME280;29709;52.396;16.796;2023-04-06T10:24:40;102324.88;;;10.24;36.35
44044;BME280;29709;52.396;16.796;2023-04-06T10:27:59;102317.64;;;10.23;35.73
44044;BME280;29709;52.396;16.796;2023-04-06T10:31:12;102312.63;;;10.17;35.81
44044;BME280;29709;52.396;16.796;2023-04-06T10:34:34;102308.95;;;9.84;35.20
44044;BME280;29709;52.396;16.796;2023-04-06T10:38:00;102320.30;;;9.68;35.21
44044;BME280;29709;52.396;16.796;2023-04-06T10:41:12;102315.94;;;9.54;35.37
44044;BME280;29709;52.396;16.796;2023-04-06T10:44:26;102304.95;;;9.77;36.38
44044;BME280;29709;52.396;16.796;2023-04-06T10:47:40;102306.98;;;10.29;36.41
44044;BME280;29709;52.396;16.796;2023-04-06T10:50:54;102301.49;;;10.61;35.62
44044;BME280;29709;52.396;16.796;2023-04-06T10:54:08;102302.85;;;10.67;34.52
44044;BME280;29709;52.396;16.796;2023-04-06T10:57:28;102307.86;;;10.30;34.39
44044;BME280;29709;52.396;16.796;2023-04-06T11:00:46;102301.73;;;10.37;35.28
44044;BME280;29709;52.396;16.796;2023-04-06T11:04:00;102291.44;;;10.72;35.73
44044;BME280;29709;52.396;16.796;2023-04-06T11:07:22;102290.25;;;10.64;34.18
44044;BME280;29709;52.396;16.796;2023-04-06T11:10:35;102287.41;;;10.55;33.69
44044;BME280;29709;52.396;16.796;2023-04-06T11:13:50;102290.46;;;10.40;34.51
44044;BME280;29709;52.396;16.796;2023-04-06T11:17:03;102281.86;;;10.66;34.37
44044;BME280;29709;52.396;16.796;2023-04-06T11:20:17;102278.56;;;10.72;34.72
44044;BME280;29709;52.396;16.796;2023-04-06T11:23:32;102268.84;;;10.89;34.72
44044;BME280;29709;52.396;16.796;2023-04-06T11:26:48;102270.45;;;10.91;34.45
44044;BME280;29709;52.396;16.796;2023-04-06T11:30:07;102261.67;;;10.97;34.52
44044;BME280;29709;52.396;16.796;2023-04-06T11:33:21;102272.20;;;10.72;34.26
44044;BME280;29709;52.396;16.796;2023-04-06T11:36:40;102269.37;;;10.83;34.81
44044;BME280;29709;52.396;16.796;2023-04-06T11:39:55;102265.88;;;10.60;34.74
44044;BME280;29709;52.396;16.796;2023-04-06T11:43:11;102269.34;;;10.41;34.48
44044;BME280;29709;52.396;16.796;2023-04-06T11:46:25;102266.48;;;10.43;34.50
44044;BME280;29709;52.396;16.796;2023-04-06T11:49:40;102256.68;;;10.50;33.66
44044;BME280;29709;52.396;16.796;2023-04-06T11:53:01;102255.54;;;10.52;34.62
44044;BME280;29709;52.396;16.796;2023-04-06T11:59:39;102249.38;;;10.60;33.94
44044;BME280;29709;52.396;16.796;2023-04-06T12:02:53;102245.91;;;10.79;34.13
44044;BME280;29709;52.396;16.796;2023-04-06T12:06:06;102234.98;;;10.67;34.09
44044;BME280;29709;52.396;16.796;2023-04-06T12:09:19;102236.12;;;10.44;34.77
44044;BME280;29709;52.396;16.796;2023-04-06T12:12:33;102234.70;;;10.50;34.69
44044;BME280;29709;52.396;16.796;2023-04-06T12:15:49;102240.47;;;10.47;33.15
44044;BME280;29709;52.396;16.796;2023-04-06T12:19:02;102239.79;;;10.33;33.39
44044;BME280;29709;52.396;16.796;2023-04-06T12:22:17;102232.58;;;10.10;34.30
44044;BME280;29709;52.396;16.796;2023-04-06T12:25:30;102236.29;;;10.20;34.37
44044;BME280;29709;52.396;16.796;2023-04-06T12:28:44;102224.48;;;10.40;35.62
44044;BME280;29709;52.396;16.796;2023-04-06T12:31:59;102218.27;;;10.59;34.74
44044;BME280;29709;52.396;16.796;2023-04-06T12:35:14;102215.52;;;10.80;35.05
44044;BME280;29709;52.396;16.796;2023-04-06T12:38:28;102208.13;;;10.81;33.87
44044;BME280;29709;52.396;16.796;2023-04-06T12:41:42;102207.62;;;10.66;34.22
44044;BME280;29709;52.396;16.796;2023-04-06T12:44:56;102204.73;;;10.67;34.99
44044;BME280;29709;52.396;16.796;2023-04-06T12:48:09;102206.20;;;10.72;34.02
44044;BME280;29709;52.396;16.796;2023-04-06T12:51:23;102197.22;;;10.49;34.40
44044;BME280;29709;52.396;16.796;2023-04-06T12:54:36;102199.83;;;10.50;34.48
44044;BME280;29709;52.396;16.796;2023-04-06T12:57:49;102196.41;;;10.37;34.75
44044;BME280;29709;52.396;16.796;2023-04-06T13:01:06;102195.88;;;10.22;34.35
44044;BME280;29709;52.396;16.796;2023-04-06T13:04:19;102193.13;;;10.22;35.06
44044;BME280;29709;52.396;16.796;2023-04-06T13:07:32;102195.35;;;10.17;35.13
44044;BME280;29709;52.396;16.796;2023-04-06T13:10:50;102183.27;;;10.40;34.57
44044;BME280;29709;52.396;16.796;2023-04-06T13:14:05;102182.40;;;10.40;34.76
44044;BME280;29709;52.396;16.796;2023-04-06T13:17:18;102175.30;;;10.37;34.32
44044;BME280;29709;52.396;16.796;2023-04-06T13:20:33;102168.48;;;10.32;34.94
44044;BME280;29709;52.396;16.796;2023-04-06T13:23:47;102173.48;;;10.48;34.56
44044;BME280;29709;52.396;16.796;2023-04-06T13:27:00;102170.81;;;10.36;33.93
44044;BME280;29709;52.396;16.796;2023-04-06T13:30:14;102173.96;;;10.21;34.59
44044;BME280;29709;52.396;16.796;2023-04-06T13:33:29;102162.24;;;10.19;35.27
44044;BME280;29709;52.396;16.796;2023-04-06T13:36:43;102165.17;;;10.38;34.84
44044;BME280;29709;52.396;16.796;2023-04-06T13:39:56;102154.60;;;10.33;34.95
44044;BME280;29709;52.396;16.796;2023-04-06T13:43:10;102161.63;;;10.26;34.42
44044;BME280;29709;52.396;16.796;2023-04-06T13:46:23;102154.52;;;10.24;33.99
44044;BME280;29709;52.396;16.796;2023-04-06T13:49:37;102153.97;;;10.30;35.15
44044;BME280;29709;52.396;16.796;2023-04-06T13:52:50;102154.26;;;10.27;35.58
44044;BME280;29709;52.396;16.796;2023-04-06T13:56:04;102143.75;;;10.21;35.07
44044;BME280;29709;52.396;16.796;2023-04-06T13:59:18;102156.27;;;10.25;35.86
44044;BME280;29709;52.396;16.796;2023-04-06T14:02:31;102150.52;;;10.17;35.87
44044;BME280;29709;52.396;16.796;2023-04-06T14:05:45;102158.95;;;10.04;35.75
44044;BME280;29709;52.396;16.796;2023-04-06T14:08:58;102150.85;;;10.02;35.83
44044;BME280;29709;52.396;16.796;2023-04-06T14:12:12;102143.40;;;9.93;35.74
44044;BME280;29709;52.396;16.796;2023-04-06T14:15:25;102126.13;;;10.02;36.74
44044;BME280;29709;52.396;16.796;2023-04-06T14:18:38;102138.66;;;10.16;36.73
44044;BME280;29709;52.396;16.796;2023-04-06T14:21:52;102139.53;;;10.17;36.72
44044;BME280;29709;52.396;16.796;2023-04-06T14:25:06;102134.59;;;10.31;36.95
44044;BME280;29709;52.396;16.796;2023-04-06T14:28:20;102132.86;;;10.30;35.63
44044;BME280;29709;52.396;16.796;2023-04-06T14:31:36;102133.04;;;10.18;35.79
44044;BME280;29709;52.396;16.796;2023-04-06T14:34:49;102126.46;;;10.09;37.06
44044;BME280;29709;52.396;16.796;2023-04-06T14:38:03;102145.95;;;10.06;36.71
44044;BME280;29709;52.396;16.796;2023-04-06T14:41:20;102126.38;;;9.99;36.34
44044;BME280;29709;52.396;16.796;2023-04-06T14:44:34;102125.50;;;9.99;36.47
44044;BME280;29709;52.396;16.796;2023-04-06T14:47:49;102121.97;;;10.08;36.93
44044;BME280;29709;52.396;16.796;2023-04-06T14:51:03;102121.17;;;10.17;36.66
44044;BME280;29709;52.396;16.796;2023-04-06T14:54:17;102118.27;;;9.98;36.59
44044;BME280;29709;52.396;16.796;2023-04-06T14:57:30;102109.44;;;9.94;36.67
44044;BME280;29709;52.396;16.796;2023-04-06T15:00:45;102121.95;;;9.87;36.22
44044;BME280;29709;52.396;16.796;2023-04-06T15:03:58;102115.13;;;9.81;36.39
44044;BME280;29709;52.396;16.796;2023-04-06T15:07:12;102123.31;;;9.61;36.22
44044;BME280;29709;52.396;16.796;2023-04-06T15:10:26;102121.37;;;9.40;36.89
44044;BME280;29709;52.396;16.796;2023-04-06T15:13:39;102120.27;;;9.32;37.32
44044;BME280;29709;52.396;16.796;2023-04-06T15:16:54;102113.03;;;9.31;37.29
44044;BME280;29709;52.396;16.796;2023-04-06T15:20:07;102109.66;;;9.38;37.44
44044;BME280;29709;52.396;16.796;2023-04-06T15:23:20;102106.88;;;9.49;37.51
44044;BME280;29709;52.396;16.796;2023-04-06T15:26:35;102106.30;;;9.67;36.91
44044;BME280;29709;52.396;16.796;2023-04-06T15:29:49;102105.20;;;9.69;36.79
44044;BME280;29709;52.396;16.796;2023-04-06T15:33:04;102114.16;;;9.71;36.05
44044;BME280;29709;52.396;16.796;2023-04-06T15:36:27;102109.78;;;9.69;36.19
44044;BME280;29709;52.396;16.796;2023-04-06T15:39:43;102108.17;;;9.66;36.03
44044;BME280;29709;52.396;16.796;2023-04-06T15:42:57;102100.68;;;9.68;35.97
44044;BME280;29709;52.396;16.796;2023-04-06T15:46:10;102106.80;;;9.72;36.32
44044;BME280;29709;52.396;16.796;2023-04-06T15:49:23;102108.05;;;9.68;36.16
44044;BME280;29709;52.396;16.796;2023-04-06T15:52:38;102110.05;;;9.66;36.08
44044;BME280;29709;52.396;16.796;2023-04-06T15:55:59;102099.80;;;9.68;35.98
44044;BME280;29709;52.396;16.796;2023-04-06T15:59:13;102107.58;;;9.63;36.02
44044;BME280;29709;52.396;16.796;2023-04-06T16:02:27;102111.23;;;9.52;36.46
44044;BME280;29709;52.396;16.796;2023-04-06T16:05:40;102099.89;;;9.45;36.82
44044;BME280;29709;52.396;16.796;2023-04-06T16:08:54;102108.76;;;9.49;37.26
44044;BME280;29709;52.396;16.796;2023-04-06T16:12:07;102103.64;;;9.44;37.37
44044;BME280;29709;52.396;16.796;2023-04-06T16:15:21;102107.38;;;9.43;37.72
44044;BME280;29709;52.396;16.796;2023-04-06T16:18:35;102100.52;;;9.38;38.01
44044;BME280;29709;52.396;16.796;2023-04-06T16:21:48;102109.41;;;9.30;37.65
44044;BME280;29709;52.396;16.796;2023-04-06T16:25:02;102113.30;;;9.28;37.94
44044;BME280;29709;52.396;16.796;2023-04-06T16:28:15;102108.55;;;9.30;38.11
44044;BME280;29709;52.396;16.796;2023-04-06T16:31:29;102104.07;;;9.29;38.16
44044;BME280;29709;52.396;16.796;2023-04-06T16:34:44;102110.43;;;9.29;38.32
44044;BME280;29709;52.396;16.796;2023-04-06T16:37:59;102107.69;;;9.29;38.34
44044;BME280;29709;52.396;16.796;2023-04-06T16:41:13;102107.45;;;9.21;38.83
44044;BME280;29709;52.396;16.796;2023-04-06T16:44:27;102104.84;;;9.19;38.40
44044;BME280;29709;52.396;16.796;2023-04-06T16:47:41;102104.44;;;9.24;38.46
44044;BME280;29709;52.396;16.796;2023-04-06T16:50:54;102109.58;;;9.17;38.19
44044;BME280;29709;52.396;16.796;2023-04-06T16:54:07;102108.60;;;9.07;38.68
44044;BME280;29709;52.396;16.796;2023-04-06T16:57:21;102103.00;;;8.98;39.11